Time;durP1;ratioP1;P1;durP2;ratioP2;P2;SDS_P1;SDS_P2;PMS_P1;PMS_P2;Temp;Humidity;BMP_temperature;BMP_pressure;BME280_temperature;BME280_humidity;BME280_pressure;Samples;Min_cycle;Max_cycle;Signal;HPM_P1;HPM_P2
2023/03/27 00:01:53;;;;;;;0.20;0.10;;;;;;;;;;4993376;28;20132;-76
2023/03/27 00:04:20;;;;;;;0.20;0.10;;;;;;;;;;4992014;28;20068;-77
2023/03/27 00:06:47;;;;;;;0.20;0.10;;;;;;;;;;4980154;28;20047;-78
2023/03/27 00:09:15;;;;;;;0.20;0.10;;;;;;;;;;4981301;28;20056;-78
2023/03/27 00:11:41;;;;;;;0.20;0.10;;;;;;;;;;4986984;28;20120;-77
2023/03/27 00:14:07;;;;;;;0.20;0.10;;;;;;;;;;4983263;28;20147;-78
2023/03/27 00:16:34;;;;;;;0.20;0.10;;;;;;;;;;4996526;28;20041;-78
2023/03/27 00:19:00;;;;;;;0.20;0.10;;;;;;;;;;4994819;28;20111;-77
2023/03/27 00:21:27;;;;;;;0.20;0.10;;;;;;;;;;4975586;28;20517;-78
2023/03/27 00:23:53;;;;;;;0.20;0.10;;;;;;;;;;5002281;28;20045;-78
2023/03/27 00:26:20;;;;;;;0.20;0.10;;;;;;;;;;4980020;28;20041;-79
2023/03/27 00:28:47;;;;;;;0.20;0.10;;;;;;;;;;4987884;28;20048;-77
2023/03/27 00:31:14;;;;;;;0.20;0.10;;;;;;;;;;4996675;28;20056;-78
2023/03/27 00:33:40;;;;;;;0.20;0.10;;;;;;;;;;4971533;28;20064;-79
2023/03/27 00:36:07;;;;;;;0.20;0.10;;;;;;;;;;4977835;28;20560;-77
2023/03/27 00:38:33;;;;;;;0.20;0.10;;;;;;;;;;4988576;28;20132;-78
2023/03/27 00:40:59;;;;;;;0.20;0.10;;;;;;;;;;4980186;28;20865;-78
2023/03/27 00:43:32;;;;;;;0.20;0.10;;;;;;;;;;4985820;28;20045;-77
2023/03/27 00:46:17;;;;;;;0.20;0.10;;;;;;;;;;4987705;28;20063;-77
2023/03/27 00:48:47;;;;;;;0.20;0.10;;;;;;;;;;4981678;28;20034;-78
2023/03/27 00:51:14;;;;;;;0.20;0.10;;;;;;;;;;4997323;28;20087;-77
2023/03/27 00:53:41;;;;;;;0.20;0.10;;;;;;;;;;5012665;28;20041;-77
2023/03/27 00:56:08;;;;;;;0.20;0.10;;;;;;;;;;4972630;28;20349;-78
2023/03/27 00:58:48;;;;;;;0.30;0.30;;;;;;;;;;5007197;28;20052;-78
2023/03/27 01:01:15;;;;;;;0.20;0.10;;;;;;;;;;5003902;28;20270;-76
2023/03/27 01:03:42;;;;;;;0.28;0.28;;;;;;;;;;5009370;28;20041;-77
2023/03/27 01:06:09;;;;;;;0.20;0.10;;;;;;;;;;4981962;28;20784;-77
2023/03/27 01:08:36;;;;;;;0.20;0.10;;;;;;;;;;4988481;28;20037;-78
2023/03/27 01:11:32;;;;;;;0.20;0.10;;;;;;;;;;5024667;28;20045;-77
2023/03/27 01:14:17;;;;;;;0.20;0.10;;;;;;;;;;4977074;28;20466;-77
2023/03/27 01:17:01;;;;;;;0.20;0.10;;;;;;;;;;4994690;28;20049;-78
2023/03/27 01:19:30;;;;;;;0.20;0.10;;;;;;;;;;4982957;28;20065;-79
2023/03/27 01:22:00;;;;;;;0.20;0.10;;;;;;;;;;5021336;28;20117;-77
2023/03/27 01:24:52;;;;;;;0.20;0.10;;;;;;;;;;5018399;28;20136;-78
2023/03/27 01:27:36;;;;;;;0.20;0.10;;;;;;;;;;4984380;28;21121;-78
2023/03/27 01:30:03;;;;;;;0.20;0.10;;;;;;;;;;5002284;28;20049;-78
2023/03/27 01:32:48;;;;;;;0.20;0.10;;;;;;;;;;5003754;28;20045;-78
2023/03/27 01:35:35;;;;;;;0.20;0.10;;;;;;;;;;4986102;28;20045;-77
2023/03/27 01:38:11;;;;;;;0.20;0.10;;;;;;;;;;4979594;28;20068;-78
2023/03/27 01:40:57;;;;;;;0.20;0.10;;;;;;;;;;5002053;28;20098;-77
2023/03/27 01:43:26;;;;;;;0.20;0.10;;;;;;;;;;4982216;28;20152;-78
2023/03/27 01:46:12;;;;;;;0.20;0.10;;;;;;;;;;4990653;28;20391;-77
2023/03/27 01:48:47;;;;;;;0.20;0.10;;;;;;;;;;5000891;28;20037;-78
2023/03/27 01:51:16;;;;;;;0.20;0.10;;;;;;;;;;5002587;28;20034;-78
2023/03/27 01:53:46;;;;;;;0.20;0.10;;;;;;;;;;5002577;28;20040;-78
2023/03/27 01:56:24;;;;;;;0.20;0.10;;;;;;;;;;4978020;28;20680;-78
2023/03/27 01:58:51;;;;;;;0.20;0.10;;;;;;;;;;4988804;28;20053;-77
2023/03/27 02:01:21;;;;;;;0.20;0.10;;;;;;;;;;4999495;28;20029;-78
2023/03/27 02:03:50;;;;;;;0.20;0.10;;;;;;;;;;5008352;28;20045;-78
2023/03/27 02:06:19;;;;;;;0.20;0.10;;;;;;;;;;5003151;28;20057;-78
2023/03/27 02:08:50;;;;;;;0.20;0.10;;;;;;;;;;4988074;28;20423;-77
2023/03/27 02:11:16;;;;;;;0.20;0.10;;;;;;;;;;4987350;28;20042;-78
2023/03/27 02:13:51;;;;;;;0.20;0.10;;;;;;;;;;5007050;28;20120;-77
2023/03/27 02:16:19;;;;;;;0.20;0.10;;;;;;;;;;4988803;28;20040;-76
2023/03/27 02:18:49;;;;;;;0.20;0.10;;;;;;;;;;4979199;28;20048;-77
2023/03/27 02:21:15;;;;;;;0.20;0.10;;;;;;;;;;4991073;28;20045;-76
2023/03/27 02:23:42;;;;;;;0.20;0.10;;;;;;;;;;4997311;28;20620;-78
2023/03/27 02:26:10;;;;;;;0.20;0.10;;;;;;;;;;4994033;28;20050;-77
2023/03/27 02:28:52;;;;;;;0.20;0.10;;;;;;;;;;4970744;28;21105;-77
2023/03/27 02:31:18;;;;;;;0.20;0.10;;;;;;;;;;4995101;28;20029;-77
2023/03/27 02:33:56;;;;;;;0.20;0.10;;;;;;;;;;4998128;28;20041;-78
2023/03/27 02:36:27;;;;;;;0.20;0.10;;;;;;;;;;4999826;28;20512;-76
2023/03/27 02:38:59;;;;;;;0.20;0.10;;;;;;;;;;4968904;28;20494;-76
2023/03/27 02:41:25;;;;;;;;;;;;;;;;;;4989209;28;20056;-77
2023/03/27 02:44:11;;;;;;;0.20;0.10;;;;;;;;;;4994253;28;20349;-77
2023/03/27 02:46:42;;;;;;;0.20;0.10;;;;;;;;;;4977900;28;20057;-77
2023/03/27 02:49:12;;;;;;;0.20;0.10;;;;;;;;;;4999666;28;20042;-77
2023/03/27 02:51:50;;;;;;;0.20;0.10;;;;;;;;;;4998221;28;20257;-76
2023/03/27 02:54:29;;;;;;;0.20;0.10;;;;;;;;;;5007031;28;20079;-77
2023/03/27 02:56:57;;;;;;;0.20;0.10;;;;;;;;;;4987189;28;20037;-77
2023/03/27 02:59:39;;;;;;;0.20;0.10;;;;;;;;;;4974410;28;20532;-77
2023/03/27 03:02:06;;;;;;;0.20;0.10;;;;;;;;;;4979791;28;20246;-77
2023/03/27 03:04:40;;;;;;;0.20;0.10;;;;;;;;;;4983911;28;20162;-78
2023/03/27 03:07:06;;;;;;;0.20;0.13;;;;;;;;;;4992790;28;20061;-76
2023/03/27 03:09:32;;;;;;;0.20;0.10;;;;;;;;;;4968100;28;20124;-77
2023/03/27 03:11:59;;;;;;;0.20;0.10;;;;;;;;;;5018390;28;20101;-76
2023/03/27 03:14:31;;;;;;;0.20;0.10;;;;;;;;;;4980780;28;20102;-77
2023/03/27 03:16:57;;;;;;;0.20;0.10;;;;;;;;;;4975312;28;20041;-78
2023/03/27 03:19:23;;;;;;;0.20;0.10;;;;;;;;;;4990177;28;20345;-77
2023/03/27 03:21:49;;;;;;;0.20;0.10;;;;;;;;;;4972612;28;20120;-79
2023/03/27 03:24:17;;;;;;;0.20;0.10;;;;;;;;;;4997833;28;20065;-77
2023/03/27 03:26:44;;;;;;;0.20;0.10;;;;;;;;;;5003859;28;20520;-78
2023/03/27 03:29:10;;;;;;;0.20;0.10;;;;;;;;;;5003695;28;20041;-76
2023/03/27 03:31:43;;;;;;;0.20;0.10;;;;;;;;;;4993047;28;20039;-78
2023/03/27 03:34:09;;;;;;;;;;;;;;;;;;4992811;28;20552;-77
2023/03/27 03:36:35;;;;;;;1.17;1.13;;;;;;;;;;4991937;28;19925;-78
2023/03/27 03:39:02;;;;;;;0.20;0.10;;;;;;;;;;4990718;28;20041;-78
2023/03/27 03:41:29;;;;;;;0.20;0.10;;;;;;;;;;4972018;28;20537;-77
2023/03/27 03:43:55;;;;;;;0.20;0.10;;;;;;;;;;4994642;28;20046;-76
2023/03/27 03:46:21;;;;;;;0.20;0.10;;;;;;;;;;4988845;28;20094;-76
2023/03/27 03:48:47;;;;;;;0.20;0.10;;;;;;;;;;4974423;28;20433;-77
2023/03/27 03:51:13;;;;;;;0.20;0.10;;;;;;;;;;4983506;28;20623;-76
2023/03/27 03:53:39;;;;;;;0.20;0.10;;;;;;;;;;4969517;28;20421;-77
2023/03/27 03:56:05;;;;;;;0.20;0.10;;;;;;;;;;4973877;28;20053;-76
2023/03/27 03:58:31;;;;;;;0.20;0.10;;;;;;;;;;4990389;28;20086;-77
2023/03/27 04:00:57;;;;;;;0.20;0.10;;;;;;;;;;4968874;28;20545;-76
2023/03/27 04:03:25;;;;;;;0.20;0.10;;;;;;;;;;4978926;28;20037;-76
2023/03/27 04:05:53;;;;;;;0.20;0.10;;;;;;;;;;4978317;28;20132;-77
2023/03/27 04:08:19;;;;;;;0.22;0.22;;;;;;;;;;4978474;28;20041;-77
2023/03/27 04:10:44;;;;;;;0.20;0.10;;;;;;;;;;4998928;28;20051;-79
2023/03/27 04:13:10;;;;;;;0.20;0.10;;;;;;;;;;4975412;28;20037;-77
2023/03/27 04:15:36;;;;;;;0.20;0.10;;;;;;;;;;5002484;28;20045;-78
2023/03/27 04:18:03;;;;;;;0.20;0.10;;;;;;;;;;4973029;28;20655;-77
2023/03/27 04:20:31;;;;;;;0.20;0.10;;;;;;;;;;4991489;28;20418;-76
2023/03/27 04:23:01;;;;;;;0.20;0.10;;;;;;;;;;4994925;28;20461;-77
2023/03/27 04:25:27;;;;;;;0.20;0.10;;;;;;;;;;5013118;28;20041;-76
2023/03/27 04:27:53;;;;;;;0.20;0.10;;;;;;;;;;4975081;28;20183;-77
2023/03/27 04:30:23;;;;;;;0.20;0.10;;;;;;;;;;4984552;28;20121;-76
2023/03/27 04:32:49;;;;;;;0.20;0.10;;;;;;;;;;4982925;28;20057;-77
2023/03/27 04:35:16;;;;;;;0.20;0.10;;;;;;;;;;4988611;28;20037;-76
2023/03/27 04:37:42;;;;;;;0.20;0.10;;;;;;;;;;4982897;28;20041;-76
2023/03/27 04:40:09;;;;;;;0.20;0.10;;;;;;;;;;4972019;28;20041;-77
2023/03/27 04:42:41;;;;;;;0.20;0.10;;;;;;;;;;4980483;28;20068;-77
2023/03/27 04:45:09;;;;;;;0.20;0.10;;;;;;;;;;4971199;28;20624;-77
2023/03/27 04:47:38;;;;;;;0.20;0.10;;;;;;;;;;4988948;28;20114;-77
2023/03/27 04:50:06;;;;;;;0.20;0.10;;;;;;;;;;4977224;28;20118;-77
2023/03/27 04:52:32;;;;;;;0.40;0.32;;;;;;;;;;4988052;28;20092;-77
2023/03/27 04:55:00;;;;;;;0.20;0.10;;;;;;;;;;4987811;28;20402;-76
2023/03/27 04:57:27;;;;;;;0.20;0.10;;;;;;;;;;4973793;28;20049;-76
2023/03/27 04:59:53;;;;;;;0.20;0.10;;;;;;;;;;4997866;28;20045;-78
2023/03/27 05:02:20;;;;;;;0.20;0.10;;;;;;;;;;4993213;28;20502;-77
2023/03/27 05:04:47;;;;;;;0.20;0.10;;;;;;;;;;4988874;28;20041;-78
2023/03/27 05:07:14;;;;;;;0.20;0.10;;;;;;;;;;4994864;28;20490;-78
2023/03/27 05:09:40;;;;;;;0.20;0.10;;;;;;;;;;4994398;28;20049;-78
2023/03/27 05:12:06;;;;;;;0.20;0.10;;;;;;;;;;4976585;28;20065;-78
2023/03/27 05:14:32;;;;;;;0.20;0.10;;;;;;;;;;4985901;28;20083;-77
2023/03/27 05:16:59;;;;;;;0.20;0.10;;;;;;;;;;4993447;28;20061;-76
2023/03/27 05:19:25;;;;;;;0.20;0.10;;;;;;;;;;4994840;28;20663;-78
2023/03/27 05:21:51;;;;;;;0.20;0.10;;;;;;;;;;4981858;28;20537;-75
2023/03/27 05:24:18;;;;;;;0.20;0.10;;;;;;;;;;4984822;28;20167;-78
2023/03/27 05:26:44;;;;;;;0.20;0.10;;;;;;;;;;4993250;28;20464;-76
2023/03/27 05:29:10;;;;;;;0.20;0.10;;;;;;;;;;4977267;28;20057;-77
2023/03/27 05:31:37;;;;;;;0.20;0.10;;;;;;;;;;4980042;28;20611;-79
2023/03/27 05:34:04;;;;;;;0.20;0.10;;;;;;;;;;5068165;22;20083;-78
2023/03/27 05:36:30;;;;;;;0.20;0.10;;;;;;;;;;5066346;28;20055;-78
2023/03/27 05:38:57;;;;;;;0.20;0.10;;;;;;;;;;5072813;28;20542;-78
2023/03/27 05:41:24;;;;;;;0.20;0.10;;;;;;;;;;5076505;28;20459;-77
2023/03/27 05:43:50;;;;;;;0.20;0.10;;;;;;;;;;5080571;28;20044;-79
2023/03/27 05:46:20;;;;;;;0.20;0.10;;;;;;;;;;5071455;28;20096;-79
2023/03/27 05:48:46;;;;;;;0.20;0.10;;;;;;;;;;5059937;28;20985;-77
2023/03/27 05:51:12;;;;;;;0.20;0.10;;;;;;;;;;5066657;28;20432;-77
2023/03/27 05:53:38;;;;;;;0.20;0.10;;;;;;;;;;5063412;28;20170;-76
2023/03/27 05:56:05;;;;;;;0.20;0.10;;;;;;;;;;5053314;28;20470;-76
2023/03/27 05:58:31;;;;;;;0.20;0.10;;;;;;;;;;5056106;28;20143;-76
2023/03/27 06:00:57;;;;;;;0.20;0.10;;;;;;;;;;5063412;28;20074;-76
2023/03/27 06:03:29;;;;;;;0.20;0.10;;;;;;;;;;5058063;28;20126;-79
2023/03/27 06:05:56;;;;;;;0.20;0.10;;;;;;;;;;5066620;28;20124;-77
2023/03/27 06:08:22;;;;;;;0.20;0.10;;;;;;;;;;5055959;28;20106;-76
2023/03/27 06:10:48;;;;;;;0.20;0.10;;;;;;;;;;5075748;28;20036;-76
2023/03/27 06:13:14;;;;;;;0.20;0.10;;;;;;;;;;5071750;28;20404;-77
2023/03/27 06:15:41;;;;;;;0.20;0.10;;;;;;;;;;5063709;28;20462;-77
2023/03/27 06:18:08;;;;;;;0.20;0.10;;;;;;;;;;5068946;28;20036;-76
2023/03/27 06:20:34;;;;;;;0.20;0.10;;;;;;;;;;5065037;28;20043;-77
2023/03/27 06:23:01;;;;;;;0.47;0.47;;;;;;;;;;5053239;28;20115;-77
2023/03/27 06:25:33;;;;;;;0.20;0.10;;;;;;;;;;5069077;28;20506;-77
2023/03/27 06:27:59;;;;;;;0.20;0.10;;;;;;;;;;5058938;28;20544;-78
2023/03/27 06:30:26;;;;;;;0.20;0.10;;;;;;;;;;5077538;28;20036;-78
2023/03/27 06:32:53;;;;;;;0.20;0.10;;;;;;;;;;5079815;28;20036;-76
2023/03/27 06:35:20;;;;;;;0.20;0.10;;;;;;;;;;5070391;28;20036;-77
2023/03/27 06:37:49;;;;;;;0.20;0.10;;;;;;;;;;5062845;28;20036;-76
2023/03/27 06:40:21;;;;;;;0.20;0.10;;;;;;;;;;5065427;28;20047;-76
2023/03/27 06:42:59;;;;;;;0.20;0.10;;;;;;;;;;5064948;28;20166;-76
2023/03/27 06:45:49;;;;;;;0.20;0.10;;;;;;;;;;5063163;28;20483;-77
2023/03/27 06:48:16;;;;;;;0.20;0.10;;;;;;;;;;5049346;28;20055;-77
2023/03/27 06:50:42;;;;;;;0.20;0.10;;;;;;;;;;5063423;28;20481;-77
2023/03/27 06:53:09;;;;;;;0.20;0.10;;;;;;;;;;5066033;28;20047;-76
2023/03/27 06:55:35;;;;;;;0.20;0.10;;;;;;;;;;5065429;28;20122;-77
2023/03/27 06:58:02;;;;;;;0.20;0.10;;;;;;;;;;5065371;28;22080;-78
2023/03/27 07:00:30;;;;;;;0.20;0.10;;;;;;;;;;5066038;28;21268;-78
2023/03/27 07:02:56;;;;;;;0.20;0.10;;;;;;;;;;5065944;28;20048;-78
2023/03/27 07:05:23;;;;;;;0.20;0.10;;;;;;;;;;5061681;28;20564;-77
2023/03/27 07:07:49;;;;;;;0.20;0.10;;;;;;;;;;5064856;28;20048;-77
2023/03/27 07:10:17;;;;;;;0.20;0.10;;;;;;;;;;5061638;28;20052;-76
2023/03/27 07:12:47;;;;;;;0.20;0.10;;;;;;;;;;5068884;28;20036;-79
2023/03/27 07:15:13;;;;;;;0.20;0.10;;;;;;;;;;5068925;28;20044;-76
2023/03/27 07:17:43;;;;;;;0.20;0.10;;;;;;;;;;5070156;28;20047;-77
2023/03/27 07:20:13;;;;;;;0.20;0.10;;;;;;;;;;5048117;28;20145;-78
2023/03/27 07:22:42;;;;;;;0.20;0.10;;;;;;;;;;5047147;28;20037;-77
2023/03/27 07:25:08;;;;;;;0.20;0.10;;;;;;;;;;5056968;28;20126;-77
2023/03/27 07:27:34;;;;;;;0.20;0.10;;;;;;;;;;5050184;28;20561;-78
2023/03/27 07:30:01;;;;;;;0.20;0.10;;;;;;;;;;5065136;28;20528;-80
2023/03/27 07:32:31;;;;;;;0.20;0.10;;;;;;;;;;5047186;28;20040;-78
2023/03/27 07:34:58;;;;;;;0.20;0.10;;;;;;;;;;5069932;28;20544;-79
2023/03/27 07:37:24;;;;;;;0.20;0.10;;;;;;;;;;5062707;28;20044;-81
2023/03/27 07:39:50;;;;;;;0.20;0.10;;;;;;;;;;5063460;28;20048;-79
2023/03/27 07:42:16;;;;;;;0.20;0.10;;;;;;;;;;5072590;28;20036;-80
2023/03/27 07:44:42;;;;;;;0.20;0.10;;;;;;;;;;5065050;28;20476;-80
2023/03/27 07:47:08;;;;;;;0.20;0.10;;;;;;;;;;5071332;28;20048;-76
2023/03/27 07:49:34;;;;;;;0.20;0.10;;;;;;;;;;5057403;28;20047;-76
2023/03/27 07:52:00;;;;;;;0.20;0.10;;;;;;;;;;5056732;28;20244;-81
2023/03/27 07:54:28;;;;;;;0.20;0.10;;;;;;;;;;5056411;28;20044;-78
2023/03/27 07:56:54;;;;;;;0.20;0.10;;;;;;;;;;5050279;28;20044;-78
2023/03/27 07:59:20;;;;;;;0.20;0.10;;;;;;;;;;5071092;28;21198;-77
2023/03/27 08:01:49;;;;;;;0.20;0.10;;;;;;;;;;5066963;28;20036;-77
2023/03/27 08:04:15;;;;;;;0.20;0.10;;;;;;;;;;5069179;28;20048;-78
2023/03/27 08:06:42;;;;;;;0.20;0.10;;;;;;;;;;5068878;28;20048;-78
2023/03/27 08:09:09;;;;;;;0.20;0.10;;;;;;;;;;5076698;28;20037;-77
2023/03/27 08:11:40;;;;;;;0.20;0.10;;;;;;;;;;5072513;28;20124;-77
2023/03/27 08:14:06;;;;;;;0.20;0.10;;;;;;;;;;5073283;28;20123;-77
2023/03/27 08:16:32;;;;;;;0.20;0.10;;;;;;;;;;5070762;28;20048;-78
2023/03/27 08:19:00;;;;;;;0.20;0.10;;;;;;;;;;5075398;28;20046;-77
2023/03/27 08:21:27;;;;;;;0.20;0.10;;;;;;;;;;5078441;28;20044;-78
2023/03/27 08:23:54;;;;;;;0.20;0.10;;;;;;;;;;5070412;28;20124;-77
2023/03/27 08:26:21;;;;;;;0.20;0.10;;;;;;;;;;5061475;28;20412;-79
2023/03/27 08:28:47;;;;;;;0.20;0.10;;;;;;;;;;5074138;28;20122;-78
2023/03/27 08:31:15;;;;;;;0.20;0.10;;;;;;;;;;5066359;28;20530;-78
2023/03/27 08:33:41;;;;;;;0.20;0.10;;;;;;;;;;5073892;28;20404;-79
2023/03/27 08:36:10;;;;;;;0.20;0.10;;;;;;;;;;5074431;28;20084;-77
2023/03/27 08:38:38;;;;;;;0.20;0.10;;;;;;;;;;5077860;28;20530;-78
2023/03/27 08:41:04;;;;;;;0.20;0.10;;;;;;;;;;5079938;28;20656;-77
2023/03/27 08:43:42;;;;;;;0.20;0.10;;;;;;;;;;5061689;28;20055;-78
2023/03/27 08:46:18;;;;;;;0.20;0.10;;;;;;;;;;5077768;28;20067;-79
2023/03/27 08:49:03;;;;;;;0.20;0.10;;;;;;;;;;5074324;28;20182;-79
2023/03/27 08:51:32;;;;;;;0.20;0.10;;;;;;;;;;5066220;28;20028;-80
2023/03/27 08:54:01;;;;;;;0.20;0.10;;;;;;;;;;5073001;28;20043;-77
2023/03/27 08:56:27;;;;;;;0.20;0.10;;;;;;;;;;5071751;28;20059;-77
2023/03/27 08:58:53;;;;;;;0.20;0.10;;;;;;;;;;5065221;28;20589;-79
2023/03/27 09:01:19;;;;;;;0.20;0.10;;;;;;;;;;5054729;28;20048;-79
2023/03/27 09:03:48;;;;;;;0.20;0.10;;;;;;;;;;5072723;28;20523;-76
2023/03/27 09:06:21;;;;;;;0.20;0.10;;;;;;;;;;5064210;28;20123;-79
2023/03/27 09:08:48;;;;;;;;;;;;;;;;;;5062134;28;20075;-77
2023/03/27 09:11:21;;;;;;;0.20;0.10;;;;;;;;;;5076946;28;19920;-80
2023/03/27 09:13:48;;;;;;;0.20;0.10;;;;;;;;;;5073441;28;20037;-78
2023/03/27 09:16:14;;;;;;;0.20;0.10;;;;;;;;;;5075331;28;20518;-77
2023/03/27 09:18:46;;;;;;;0.20;0.10;;;;;;;;;;5075941;28;20032;-79
2023/03/27 09:21:31;;;;;;;0.20;0.10;;;;;;;;;;5079797;28;20432;-80
2023/03/27 09:23:59;;;;;;;0.20;0.10;;;;;;;;;;5070303;28;20041;-80
2023/03/27 09:26:31;;;;;;;0.20;0.10;;;;;;;;;;5068233;28;20028;-79
2023/03/27 09:28:59;;;;;;;;;;;;;;;;;;5075079;28;20036;-81
2023/03/27 09:31:25;;;;;;;0.20;0.10;;;;;;;;;;5073809;28;19938;-80
2023/03/27 09:33:51;;;;;;;0.20;0.10;;;;;;;;;;5044285;28;1082570;-78
2023/03/27 09:36:17;;;;;;;0.20;0.10;;;;;;;;;;5072268;28;21587;-78
2023/03/27 09:38:49;;;;;;;0.20;0.10;;;;;;;;;;5083111;28;20044;-80
2023/03/27 09:41:17;;;;;;;0.20;0.10;;;;;;;;;;5067816;28;20044;-80
2023/03/27 09:43:50;;;;;;;0.20;0.10;;;;;;;;;;5064124;28;20518;-80
2023/03/27 09:46:18;;;;;;;0.20;0.10;;;;;;;;;;5074248;28;20044;-79
2023/03/27 09:48:49;;;;;;;0.20;0.10;;;;;;;;;;5063758;28;20160;-79
2023/03/27 09:51:33;;;;;;;0.20;0.10;;;;;;;;;;5084739;28;20072;-82
2023/03/27 09:53:59;;;;;;;0.20;0.10;;;;;;;;;;5081756;28;20051;-81
2023/03/27 09:56:27;;;;;;;0.20;0.10;;;;;;;;;;5079785;28;20045;-80
2023/03/27 09:58:53;;;;;;;0.20;0.10;;;;;;;;;;5076287;28;20036;-81
2023/03/27 10:01:22;;;;;;;0.20;0.10;;;;;;;;;;5058384;28;20076;-82
2023/03/27 10:03:51;;;;;;;0.20;0.10;;;;;;;;;;5079713;28;20036;-79
2023/03/27 10:06:43;;;;;;;0.20;0.10;;;;;;;;;;5073147;28;20039;-80
2023/03/27 10:09:21;;;;;;;0.20;0.10;;;;;;;;;;5082799;28;20036;-79
2023/03/27 10:11:49;;;;;;;0.20;0.10;;;;;;;;;;5062580;28;20442;-80
2023/03/27 10:14:17;;;;;;;0.20;0.10;;;;;;;;;;5057739;28;20096;-77
2023/03/27 10:16:47;;;;;;;0.20;0.10;;;;;;;;;;5076208;28;20060;-77
2023/03/27 10:19:21;;;;;;;0.20;0.10;;;;;;;;;;5082300;28;20052;-80
2023/03/27 10:21:48;;;;;;;0.20;0.10;;;;;;;;;;5080602;28;21093;-78
2023/03/27 10:24:17;;;;;;;0.20;0.10;;;;;;;;;;5076334;28;20044;-79
2023/03/27 10:26:43;;;;;;;0.20;0.10;;;;;;;;;;5074705;28;20032;-77
2023/03/27 10:29:21;;;;;;;0.20;0.10;;;;;;;;;;5070878;28;20072;-78
2023/03/27 10:31:54;;;;;;;0.20;0.10;;;;;;;;;;5076976;28;20466;-78
2023/03/27 10:34:27;;;;;;;0.20;0.10;;;;;;;;;;5074875;28;20047;-77
2023/03/27 10:36:54;;;;;;;0.20;0.10;;;;;;;;;;5078667;28;20170;-77
2023/03/27 10:39:23;;;;;;;0.20;0.10;;;;;;;;;;5078050;28;20041;-80
2023/03/27 10:41:50;;;;;;;0.20;0.10;;;;;;;;;;5083748;28;20076;-77
2023/03/27 10:44:18;;;;;;;0.20;0.10;;;;;;;;;;5064516;28;20315;-78
2023/03/27 10:46:45;;;;;;;0.20;0.10;;;;;;;;;;5078595;28;20498;-78
2023/03/27 10:49:11;;;;;;;0.20;0.10;;;;;;;;;;5076451;28;20097;-78
2023/03/27 10:51:40;;;;;;;0.20;0.10;;;;;;;;;;5074396;28;20047;-78
2023/03/27 10:54:12;;;;;;;0.20;0.10;;;;;;;;;;5078310;28;20032;-79
2023/03/27 10:56:45;;;;;;;0.20;0.10;;;;;;;;;;5080845;28;20052;-79
2023/03/27 10:59:17;;;;;;;0.30;0.20;;;;;;;;;;5081127;28;20093;-78
2023/03/27 11:01:44;;;;;;;;;;;;;;;;;;5060807;28;20063;-77
2023/03/27 11:04:10;;;;;;;0.20;0.10;;;;;;;;;;5083576;28;19947;-80
2023/03/27 11:06:39;;;;;;;0.20;0.10;;;;;;;;;;5069940;28;20049;-79
2023/03/27 11:09:24;;;;;;;0.20;0.10;;;;;;;;;;5080416;28;20125;-79
2023/03/27 11:11:57;;;;;;;0.20;0.10;;;;;;;;;;5074815;28;20089;-81
2023/03/27 11:14:30;;;;;;;0.20;0.10;;;;;;;;;;5059580;28;20482;-79
2023/03/27 11:16:58;;;;;;;0.20;0.10;;;;;;;;;;5076527;28;20067;-79
2023/03/27 11:19:38;;;;;;;0.20;0.10;;;;;;;;;;5070006;28;21466;-79
2023/03/27 11:22:13;;;;;;;0.20;0.10;;;;;;;;;;5076451;28;20047;-81
2023/03/27 11:24:46;;;;;;;0.20;0.10;;;;;;;;;;5076985;28;20206;-78
2023/03/27 11:27:15;;;;;;;0.20;0.10;;;;;;;;;;5074895;28;20045;-80
2023/03/27 11:30:05;;;;;;;0.20;0.10;;;;;;;;;;5075442;28;20048;-80
2023/03/27 11:32:46;;;;;;;0.20;0.10;;;;;;;;;;5046062;22;20483;-78
2023/03/27 11:35:22;;;;;;;0.20;0.10;;;;;;;;;;5023490;28;20857;-81
2023/03/27 11:37:54;;;;;;;0.20;0.10;;;;;;;;;;5025669;28;20033;-83
2023/03/27 11:40:25;;;;;;;0.20;0.10;;;;;;;;;;5025598;28;20037;-82
2023/03/27 11:42:52;;;;;;;0.20;0.10;;;;;;;;;;5024398;28;20030;-80
2023/03/27 11:45:22;;;;;;;0.20;0.10;;;;;;;;;;5016540;28;20068;-83
2023/03/27 11:48:02;;;;;;;0.20;0.10;;;;;;;;;;5023403;28;20038;-81
2023/03/27 11:50:32;;;;;;;0.20;0.10;;;;;;;;;;5005933;28;20498;-82
2023/03/27 11:53:02;;;;;;;0.20;0.10;;;;;;;;;;5021909;28;20301;-81
2023/03/27 11:55:39;;;;;;;0.20;0.10;;;;;;;;;;5008557;28;20041;-84
2023/03/27 11:58:25;;;;;;;0.20;0.10;;;;;;;;;;5018861;28;20045;-81
2023/03/27 12:00:57;;;;;;;0.20;0.10;;;;;;;;;;5020675;28;20037;-84
2023/03/27 12:03:47;;;;;;;0.20;0.10;;;;;;;;;;5019071;28;20441;-82
2023/03/27 12:06:43;;;;;;;0.20;0.10;;;;;;;;;;4986878;28;20489;-81
2023/03/27 12:09:22;;;;;;;0.20;0.10;;;;;;;;;;4980586;28;20116;-81
2023/03/27 12:11:53;;;;;;;0.20;0.10;;;;;;;;;;5015559;28;20046;-83
2023/03/27 12:14:43;;;;;;;0.20;0.10;;;;;;;;;;5002297;28;20433;-82
2023/03/27 12:17:20;;;;;;;0.20;0.10;;;;;;;;;;4982821;28;20057;-81
2023/03/27 12:19:58;;;;;;;0.20;0.10;;;;;;;;;;4996103;28;20056;-83
2023/03/27 12:22:38;;;;;;;0.20;0.10;;;;;;;;;;5019510;28;20048;-84
2023/03/27 12:25:18;;;;;;;0.20;0.10;;;;;;;;;;5000039;28;20068;-83
2023/03/27 12:27:47;;;;;;;0.20;0.10;;;;;;;;;;5015939;28;20052;-81
2023/03/27 12:30:22;;;;;;;0.20;0.10;;;;;;;;;;5016081;28;20108;-79
2023/03/27 12:32:49;;;;;;;0.20;0.10;;;;;;;;;;4987361;28;20182;-82
2023/03/27 12:35:20;;;;;;;0.20;0.10;;;;;;;;;;5002457;28;20042;-85
2023/03/27 12:37:49;;;;;;;0.20;0.20;;;;;;;;;;5017713;28;20402;-83
2023/03/27 12:40:21;;;;;;;0.20;0.10;;;;;;;;;;4997679;28;20046;-83
2023/03/27 12:42:51;;;;;;;0.20;0.10;;;;;;;;;;5013416;28;20406;-86
2023/03/27 12:45:18;;;;;;;0.20;0.10;;;;;;;;;;4999265;28;20045;-82
2023/03/27 12:48:03;;;;;;;0.20;0.10;;;;;;;;;;5018366;28;20045;-85
2023/03/27 12:50:32;;;;;;;0.20;0.10;;;;;;;;;;4997049;28;20042;-85
2023/03/27 12:53:03;;;;;;;0.20;0.10;;;;;;;;;;5019296;28;20403;-82
2023/03/27 12:55:31;;;;;;;0.20;0.10;;;;;;;;;;5021368;28;20414;-82
2023/03/27 12:57:57;;;;;;;0.20;0.10;;;;;;;;;;4985654;28;20033;-77
2023/03/27 13:00:26;;;;;;;0.20;0.10;;;;;;;;;;5020288;28;20410;-81
2023/03/27 13:03:10;;;;;;;0.20;0.20;;;;;;;;;;5017548;28;20061;-82
2023/03/27 13:05:36;;;;;;;0.20;0.10;;;;;;;;;;5011013;28;20047;-78
2023/03/27 13:08:06;;;;;;;0.20;0.10;;;;;;;;;;4998980;28;20042;-81
2023/03/27 13:10:49;;;;;;;0.20;0.10;;;;;;;;;;5004227;28;20037;-82
2023/03/27 13:13:43;;;;;;;0.20;0.10;;;;;;;;;;5016457;28;20116;-81
2023/03/27 13:16:14;;;;;;;0.20;0.10;;;;;;;;;;5007200;28;20503;-81
2023/03/27 13:18:47;;;;;;;0.20;0.10;;;;;;;;;;4999413;28;20080;-78
2023/03/27 13:21:15;;;;;;;0.20;0.10;;;;;;;;;;5018357;28;20084;-81
2023/03/27 13:23:41;;;;;;;0.20;0.10;;;;;;;;;;5013955;28;20053;-78
2023/03/27 13:26:26;;;;;;;0.20;0.10;;;;;;;;;;4996203;28;20124;-81
2023/03/27 13:28:55;;;;;;;0.20;0.10;;;;;;;;;;4997869;28;20087;-84
2023/03/27 13:31:40;;;;;;;0.20;0.10;;;;;;;;;;5004123;28;20069;-82
2023/03/27 13:34:26;;;;;;;0.20;0.10;;;;;;;;;;5019861;28;20045;-81
2023/03/27 13:37:05;;;;;;;0.20;0.10;;;;;;;;;;4997301;28;20317;-80
2023/03/27 13:39:45;;;;;;;0.20;0.10;;;;;;;;;;5021349;28;20038;-79
2023/03/27 13:42:16;;;;;;;0.20;0.10;;;;;;;;;;5004481;28;20041;-79
2023/03/27 13:44:45;;;;;;;0.20;0.10;;;;;;;;;;5018905;28;20068;-83
2023/03/27 13:47:24;;;;;;;0.20;0.10;;;;;;;;;;4988242;28;20033;-81
2023/03/27 13:50:08;;;;;;;0.20;0.10;;;;;;;;;;5017604;28;20049;-78
2023/03/27 13:52:55;;;;;;;0.20;0.10;;;;;;;;;;5018100;28;20405;-83
2023/03/27 13:55:43;;;;;;;0.20;0.10;;;;;;;;;;4984842;28;20104;-81
2023/03/27 13:58:31;;;;;;;0.20;0.10;;;;;;;;;;5020017;28;20330;-81
2023/03/27 14:01:12;;;;;;;0.20;0.10;;;;;;;;;;5004271;28;20032;-83
2023/03/27 14:03:44;;;;;;;0.20;0.03;;;;;;;;;;5006386;28;20528;-82
2023/03/27 14:06:32;;;;;;;0.20;0.10;;;;;;;;;;5000372;28;20042;-80
2023/03/27 14:09:25;;;;;;;0.20;0.10;;;;;;;;;;5020910;28;20494;-80
2023/03/27 14:12:10;;;;;;;0.20;0.10;;;;;;;;;;4996345;28;20088;-81
2023/03/27 14:14:59;;;;;;;0.20;0.10;;;;;;;;;;5002575;28;20126;-81
2023/03/27 14:17:44;;;;;;;0.20;0.10;;;;;;;;;;4978091;28;20049;-81
2023/03/27 14:20:18;;;;;;;0.20;0.10;;;;;;;;;;4998586;28;20041;-81
2023/03/27 14:23:04;;;;;;;0.20;0.10;;;;;;;;;;5018685;28;20128;-80
2023/03/27 14:25:37;;;;;;;0.20;0.10;;;;;;;;;;4985179;28;20084;-79
2023/03/27 14:28:08;;;;;;;0.20;0.10;;;;;;;;;;5006114;28;20048;-78
2023/03/27 14:30:48;;;;;;;0.20;0.10;;;;;;;;;;5002736;28;20049;-81
2023/03/27 14:33:18;;;;;;;0.20;0.10;;;;;;;;;;5021383;28;20129;-82
2023/03/27 14:35:45;;;;;;;0.20;0.10;;;;;;;;;;5025719;28;20045;-82
2023/03/27 14:38:32;;;;;;;0.20;0.10;;;;;;;;;;5012470;28;20094;-80
2023/03/27 14:41:02;;;;;;;0.20;0.10;;;;;;;;;;5021261;28;20125;-81
2023/03/27 14:43:30;;;;;;;;;;;;;;;;;;5009710;28;20045;-80
2023/03/27 14:45:59;;;;;;;0.20;0.10;;;;;;;;;;5021407;28;20365;-79
2023/03/27 14:48:30;;;;;;;0.20;0.10;;;;;;;;;;5008156;28;20179;-81
2023/03/27 14:51:00;;;;;;;0.20;0.10;;;;;;;;;;5001845;28;20037;-80
2023/03/27 14:53:30;;;;;;;0.20;0.10;;;;;;;;;;5023200;28;20060;-81
2023/03/27 14:55:59;;;;;;;0.20;0.10;;;;;;;;;;5003227;28;20049;-82
2023/03/27 14:58:25;;;;;;;0.20;0.10;;;;;;;;;;4995348;28;20048;-81
2023/03/27 15:00:53;;;;;;;0.20;0.10;;;;;;;;;;5014996;28;20184;-81
2023/03/27 15:03:22;;;;;;;0.20;0.10;;;;;;;;;;5018008;28;20052;-81
2023/03/27 15:05:56;;;;;;;0.20;0.10;;;;;;;;;;5007207;28;20033;-80
2023/03/27 15:08:24;;;;;;;0.20;0.10;;;;;;;;;;5001714;28;20056;-83